Cedarglen — VCLN — position and weather

sailwx.info

Track history (hours):
 
Tides and Currents Weather Stations Pressure Air Temp Water Temp Dewpoint Dewpoint Depression Visibility Wind Speed Wind Dir Waves Ship Positions

Cedarglen

ex Cartierdoc

Last reported at 2017-Nov-18 20:44 UTC. Time now 2017-Nov-21 10:24 UTC.
Position N 45°30' W 083°18'.

Length 222 m; draft 8.1 m.

Type: Cargo ship. MMSI: 316001838.

Date/timePositionNaut miles runAvg speedWind from/ knotsBaromVisibWave heightAir tempDewpointWater temp
2017-Nov-18 20:44N 45°30' W 083°18'310.8
2017-Nov-18 20:26N 45°32' W 083°21'510.8
2017-Nov-18 19:57N 45°36' W 083°26'510.9
2017-Nov-18 19:30N 45°40' W 083°31'  
2017-Nov-14 23:19N 45°46' W 083°42'411.7
2017-Nov-14 23:00N 45°43' W 083°39'611.8
2017-Nov-14 22:30N 45°38' W 083°35'611.7
2017-Nov-14 22:00N 45°33' W 083°30'611.6
2017-Nov-14 21:30N 45°28' W 083°25'  
2017-Nov-11 16:04N 45°14' W 074°09'1 8.9
2017-Nov-11 16:00N 45°14' W 074°09'4 8.4
2017-Nov-11 15:30N 45°13' W 074°03'4 8.6
2017-Nov-11 15:00N 45°16' W 073°58'3 6.0
2017-Nov-11 14:30N 45°18' W 073°56'1 1.1
2017-Nov-11 14:00N 45°19' W 073°55'0 0.6
2017-Nov-11 13:30N 45°19' W 073°55'1 2.3
2017-Nov-11 13:00N 45°20' W 073°54'4 7.7
2017-Nov-11 12:30N 45°22' W 073°50'4 8.8
2017-Nov-11 12:00N 45°24' W 073°44'3 6.5
2017-Nov-11 11:29N 45°25' W 073°39'3 5.5
2017-Nov-11 11:00N 45°24' W 073°36'1 2.5
2017-Nov-11 10:30N 45°24' W 073°34'1 1.3
2017-Nov-11 10:00N 45°24' W 073°33'2 4.8
2017-Nov-11 09:30N 45°26' W 073°30'3 6.5
2017-Nov-11 09:00N 45°29' W 073°31'1 1.2
2017-Nov-11 08:24N 45°30' W 073°31'1 1.4
2017-Nov-11 07:58N 45°30' W 073°31'1 0.0
2017-Nov-09 19:20N 45°30' W 073°31'1 2.3
2017-Nov-09 18:55N 45°29' W 073°31'3 5.9
2017-Nov-09 18:27N 45°26' W 073°30'3 3.7
2017-Nov-09 17:37N 45°24' W 073°34'0 0.1
2017-Nov-09 17:28N 45°24' W 073°34'0 0.7
2017-Nov-09 17:00N 45°24' W 073°34'0 0.0
2017-Nov-09 16:30N 45°24' W 073°34'0 0.0
2017-Nov-09 16:00N 45°24' W 073°34'0 0.0
2017-Nov-09 15:30N 45°24' W 073°34'2 4.4
2017-Nov-09 14:59N 45°24' W 073°38'3 5.9
2017-Nov-09 14:30N 45°25' W 073°42'4 8.3
2017-Nov-09 14:00N 45°24' W 073°47'511.2
2017-Nov-09 13:30N 45°20' W 073°53'2 3.6
2017-Nov-09 13:00N 45°19' W 073°55'0 0.0
2017-Nov-09 12:30N 45°19' W 073°55'0 0.8
2017-Nov-09 12:00N 45°19' W 073°55'0 0.8
2017-Nov-09 11:30N 45°18' W 073°56'1 1.3
2017-Nov-09 11:00N 45°18' W 073°56'4 7.2
2017-Nov-09 10:30N 45°15' W 073°59'6 9.4
2017-Nov-09 09:54N 45°14' W 074°07'810.3
2017-Nov-09 09:08N 45°12' W 074°18'  
Track history (hours):
 
Tides and Currents Weather Stations Pressure Air Temp Water Temp Dewpoint Dewpoint Depression Visibility Wind Speed Wind Dir Waves Ship Positions

Cedarglen

ex Cartierdoc

Last reported at 2017-Nov-18 20:44 UTC. Time now 2017-Nov-21 10:24 UTC.
Position N 45°30' W 083°18'.

Length 222 m; draft 8.1 m.

Type: Cargo ship. MMSI: 316001838.

Date/timePositionNaut miles runAvg speedWind from/ knotsBaromVisibWave heightAir tempDewpointWater temp
2017-Nov-18 20:44N 45°30' W 083°18'310.8
2017-Nov-18 20:26N 45°32' W 083°21'510.8
2017-Nov-18 19:57N 45°36' W 083°26'510.9
2017-Nov-18 19:30N 45°40' W 083°31'  
2017-Nov-14 23:19N 45°46' W 083°42'411.7
2017-Nov-14 23:00N 45°43' W 083°39'611.8
2017-Nov-14 22:30N 45°38' W 083°35'611.7
2017-Nov-14 22:00N 45°33' W 083°30'611.6
2017-Nov-14 21:30N 45°28' W 083°25'  
2017-Nov-11 16:04N 45°14' W 074°09'1 8.9
2017-Nov-11 16:00N 45°14' W 074°09'4 8.4
2017-Nov-11 15:30N 45°13' W 074°03'4 8.6
2017-Nov-11 15:00N 45°16' W 073°58'3 6.0
2017-Nov-11 14:30N 45°18' W 073°56'1 1.1
2017-Nov-11 14:00N 45°19' W 073°55'0 0.6
2017-Nov-11 13:30N 45°19' W 073°55'1 2.3
2017-Nov-11 13:00N 45°20' W 073°54'4 7.7
2017-Nov-11 12:30N 45°22' W 073°50'4 8.8
2017-Nov-11 12:00N 45°24' W 073°44'3 6.5
2017-Nov-11 11:29N 45°25' W 073°39'3 5.5
2017-Nov-11 11:00N 45°24' W 073°36'1 2.5
2017-Nov-11 10:30N 45°24' W 073°34'1 1.3
2017-Nov-11 10:00N 45°24' W 073°33'2 4.8
2017-Nov-11 09:30N 45°26' W 073°30'3 6.5
2017-Nov-11 09:00N 45°29' W 073°31'1 1.2
2017-Nov-11 08:24N 45°30' W 073°31'1 1.4
2017-Nov-11 07:58N 45°30' W 073°31'1 0.0
2017-Nov-09 19:20N 45°30' W 073°31'1 2.3
2017-Nov-09 18:55N 45°29' W 073°31'3 5.9
2017-Nov-09 18:27N 45°26' W 073°30'3 3.7
2017-Nov-09 17:37N 45°24' W 073°34'0 0.1
2017-Nov-09 17:28N 45°24' W 073°34'0 0.7
2017-Nov-09 17:00N 45°24' W 073°34'0 0.0
2017-Nov-09 16:30N 45°24' W 073°34'0 0.0
2017-Nov-09 16:00N 45°24' W 073°34'0 0.0
2017-Nov-09 15:30N 45°24' W 073°34'2 4.4
2017-Nov-09 14:59N 45°24' W 073°38'3 5.9
2017-Nov-09 14:30N 45°25' W 073°42'4 8.3
2017-Nov-09 14:00N 45°24' W 073°47'511.2
2017-Nov-09 13:30N 45°20' W 073°53'2 3.6
2017-Nov-09 13:00N 45°19' W 073°55'0 0.0
2017-Nov-09 12:30N 45°19' W 073°55'0 0.8
2017-Nov-09 12:00N 45°19' W 073°55'0 0.8
2017-Nov-09 11:30N 45°18' W 073°56'1 1.3
2017-Nov-09 11:00N 45°18' W 073°56'4 7.2
2017-Nov-09 10:30N 45°15' W 073°59'6 9.4
2017-Nov-09 09:54N 45°14' W 074°07'810.3
2017-Nov-09 09:08N 45°12' W 074°18'  

Dump ship's entire track history